createdAt,value
2018-03-07T00:00:07.352Z,2.20
2018-03-07T00:02:35.053Z,2.20
2018-03-07T00:05:02.717Z,2.30
2018-03-07T00:07:30.274Z,2.40
2018-03-07T00:09:57.836Z,2.40
2018-03-07T00:12:25.498Z,2.30
2018-03-07T00:14:52.973Z,2.20
2018-03-07T00:17:20.731Z,2.20
2018-03-07T00:19:48.175Z,2.10
2018-03-07T00:22:15.632Z,2.20
2018-03-07T00:24:43.268Z,2.30
2018-03-07T00:27:10.992Z,2.40
2018-03-07T00:29:39.049Z,2.40
2018-03-07T00:32:06.810Z,2.40
2018-03-07T00:34:34.578Z,2.50
2018-03-07T00:37:02.296Z,2.40
2018-03-07T00:39:30.415Z,2.40
2018-03-07T00:41:58.187Z,2.30
2018-03-07T00:44:26.700Z,2.30
2018-03-07T00:46:55.238Z,2.40
2018-03-07T00:49:22.911Z,2.40
2018-03-07T00:51:50.630Z,2.20
2018-03-07T00:54:18.407Z,2.20
2018-03-07T00:56:46.165Z,2.20
2018-03-07T00:59:13.655Z,2.10
2018-03-07T01:01:41.187Z,2.00
2018-03-07T01:04:08.978Z,2.00
2018-03-07T01:06:36.422Z,1.90
2018-03-07T01:09:04.081Z,2.00
2018-03-07T01:11:31.658Z,2.00
2018-03-07T01:13:59.303Z,2.00
2018-03-07T01:16:27.060Z,1.90
2018-03-07T01:18:54.807Z,1.90
2018-03-07T01:21:22.499Z,1.90
2018-03-07T01:23:50.307Z,1.90
2018-03-07T01:26:18.528Z,2.00
2018-03-07T01:28:46.626Z,2.00
2018-03-07T01:31:14.387Z,2.00
2018-03-07T01:33:42.055Z,1.90
2018-03-07T01:36:09.911Z,1.90
2018-03-07T01:38:37.679Z,1.80
2018-03-07T01:41:05.301Z,1.80
2018-03-07T01:43:33.210Z,1.70
2018-03-07T01:46:00.829Z,1.70
2018-03-07T01:48:28.430Z,1.70
2018-03-07T01:50:56.062Z,1.70
2018-03-07T01:53:23.839Z,1.70
2018-03-07T01:55:51.903Z,1.70
2018-03-07T01:58:19.794Z,1.70
2018-03-07T02:00:47.240Z,1.80
2018-03-07T02:03:14.745Z,1.80
2018-03-07T02:05:42.576Z,1.80
2018-03-07T02:08:10.240Z,1.80
2018-03-07T02:10:38.098Z,1.70
2018-03-07T02:13:05.559Z,1.70
2018-03-07T02:15:33.218Z,1.80
2018-03-07T02:18:01.475Z,1.80
2018-03-07T02:20:29.034Z,1.70
2018-03-07T02:22:56.699Z,1.70
2018-03-07T02:25:24.461Z,1.70
2018-03-07T02:27:52.062Z,1.80
2018-03-07T02:30:20.112Z,1.70
2018-03-07T02:32:48.103Z,1.70
2018-03-07T02:35:15.648Z,1.80
2018-03-07T02:37:43.283Z,1.70
2018-03-07T02:40:11.171Z,1.60
2018-03-07T02:42:38.939Z,1.60
2018-03-07T02:45:06.728Z,1.60
2018-03-07T02:47:34.351Z,1.70
2018-03-07T02:50:01.839Z,1.60
2018-03-07T02:52:30.234Z,1.70
2018-03-07T02:54:57.683Z,1.60
2018-03-07T02:57:25.514Z,1.80
2018-03-07T02:59:53.591Z,1.80
2018-03-07T03:02:21.267Z,1.90
2018-03-07T03:04:48.718Z,1.90
2018-03-07T03:07:16.574Z,2.00
2018-03-07T03:09:44.213Z,2.00
2018-03-07T03:12:12.027Z,2.00
2018-03-07T03:14:39.740Z,2.00
2018-03-07T03:17:07.625Z,2.00
2018-03-07T03:19:35.697Z,2.10
2018-03-07T03:22:03.466Z,2.10
2018-03-07T03:24:31.211Z,2.00
2018-03-07T03:26:58.683Z,1.80
2018-03-07T03:29:26.679Z,1.70
2018-03-07T03:31:54.710Z,1.70
2018-03-07T03:34:22.241Z,1.80
2018-03-07T03:36:50.575Z,1.90
2018-03-07T03:39:18.306Z,1.90
2018-03-07T03:41:46.189Z,2.00
2018-03-07T03:44:13.642Z,2.10
2018-03-07T03:46:41.071Z,2.10
2018-03-07T03:49:08.575Z,2.10
2018-03-07T03:51:36.335Z,2.10
2018-03-07T03:54:04.093Z,2.10
2018-03-07T03:56:31.866Z,2.10
2018-03-07T03:58:59.314Z,2.10
2018-03-07T04:01:26.968Z,2.10
2018-03-07T04:03:54.537Z,2.20
2018-03-07T04:06:22.298Z,2.20
2018-03-07T04:08:49.761Z,2.10
2018-03-07T04:11:21.401Z,1.90
2018-03-07T04:13:49.198Z,1.80
2018-03-07T04:16:16.642Z,1.70
2018-03-07T04:18:44.384Z,1.80
2018-03-07T04:21:11.961Z,1.80
2018-03-07T04:23:39.912Z,1.80
2018-03-07T04:26:07.525Z,1.80
2018-03-07T04:28:35.254Z,1.70
2018-03-07T04:31:02.705Z,1.80
2018-03-07T04:33:31.702Z,1.90
2018-03-07T04:35:59.341Z,2.00
2018-03-07T04:38:27.418Z,2.10
2018-03-07T04:40:55.004Z,2.20
2018-03-07T04:43:22.467Z,2.20
2018-03-07T04:45:50.219Z,1.90
2018-03-07T04:48:17.686Z,2.00
2018-03-07T04:50:45.316Z,2.00
2018-03-07T04:53:12.768Z,2.10
2018-03-07T04:55:40.364Z,2.00
2018-03-07T04:58:08.409Z,2.00
2018-03-07T05:00:36.093Z,1.90
2018-03-07T05:03:03.541Z,1.90
2018-03-07T05:05:30.986Z,1.80
2018-03-07T05:07:58.866Z,1.80
2018-03-07T05:10:26.519Z,1.70
2018-03-07T05:12:54.270Z,1.60
2018-03-07T05:15:21.753Z,1.70
2018-03-07T05:17:49.211Z,1.70
2018-03-07T05:20:17.682Z,1.80
2018-03-07T05:22:45.742Z,2.00
2018-03-07T05:25:13.403Z,2.00
2018-03-07T05:27:40.974Z,2.10
2018-03-07T05:30:08.737Z,2.10
2018-03-07T05:32:36.220Z,2.10
2018-03-07T05:35:03.692Z,2.20
2018-03-07T05:37:31.122Z,2.30
2018-03-07T05:39:58.570Z,2.30
2018-03-07T05:42:26.314Z,2.30
2018-03-07T05:44:53.754Z,2.40
2018-03-07T05:47:21.461Z,2.30
2018-03-07T05:49:49.330Z,2.30
2018-03-07T05:52:16.771Z,2.30
2018-03-07T05:54:44.750Z,2.30
2018-03-07T05:57:12.210Z,2.30
2018-03-07T05:59:39.935Z,2.30
2018-03-07T06:02:07.734Z,2.30
2018-03-07T06:04:35.194Z,2.20
2018-03-07T06:07:02.678Z,2.10
2018-03-07T06:09:30.126Z,2.00
2018-03-07T06:11:57.567Z,2.00
2018-03-07T06:14:25.363Z,1.90
2018-03-07T06:16:52.790Z,1.80
2018-03-07T06:19:20.237Z,1.80
2018-03-07T06:21:47.975Z,1.90
2018-03-07T06:26:48.749Z,1.90
2018-03-07T06:29:16.340Z,2.00
2018-03-07T06:31:43.937Z,2.10
2018-03-07T06:34:11.582Z,2.30
2018-03-07T06:36:39.014Z,2.40
2018-03-07T06:39:06.763Z,2.50
2018-03-07T06:41:34.562Z,2.40
2018-03-07T06:44:02.606Z,2.50
2018-03-07T06:46:30.053Z,2.50
2018-03-07T06:48:57.727Z,2.60
2018-03-07T06:51:25.587Z,2.40
2018-03-07T06:53:53.348Z,2.40
2018-03-07T06:56:20.809Z,2.50
2018-03-07T06:58:48.247Z,2.60
2018-03-07T07:01:15.895Z,2.60
2018-03-07T07:03:43.626Z,2.60
2018-03-07T07:06:11.144Z,2.70
2018-03-07T07:08:38.606Z,2.70
2018-03-07T07:11:06.167Z,2.80
2018-03-07T07:13:34.233Z,2.80
2018-03-07T07:16:01.696Z,2.90
2018-03-07T07:18:29.445Z,2.90
2018-03-07T07:20:57.525Z,2.90
2018-03-07T07:23:25.596Z,3.00
2018-03-07T07:25:53.047Z,3.00
2018-03-07T07:28:20.809Z,2.90
2018-03-07T07:30:48.255Z,2.90
2018-03-07T07:33:15.941Z,3.00
2018-03-07T07:35:43.385Z,3.20
2018-03-07T07:38:11.046Z,3.30
2018-03-07T07:40:38.710Z,3.30
2018-03-07T07:43:06.481Z,3.30
2018-03-07T07:45:35.473Z,3.10
2018-03-07T07:48:04.322Z,3.20
2018-03-07T07:50:31.766Z,3.10
2018-03-07T07:53:00.165Z,3.20
2018-03-07T07:55:27.968Z,3.20
2018-03-07T07:57:55.483Z,3.20
2018-03-07T08:00:23.250Z,3.10
2018-03-07T08:02:50.677Z,3.10
2018-03-07T08:05:18.414Z,3.30
2018-03-07T08:07:46.269Z,3.10
2018-03-07T08:10:13.952Z,3.00
2018-03-07T08:12:41.388Z,3.00
2018-03-07T08:15:09.451Z,3.00
2018-03-07T08:17:36.923Z,2.90
2018-03-07T08:20:04.795Z,3.00
2018-03-07T08:22:32.555Z,3.20
2018-03-07T08:25:00.006Z,3.30
2018-03-07T08:27:27.454Z,3.40
2018-03-07T08:29:55.412Z,3.50
2018-03-07T08:32:22.890Z,3.60
2018-03-07T08:34:50.658Z,3.60
2018-03-07T08:37:18.128Z,3.70
2018-03-07T08:39:45.976Z,3.80
2018-03-07T08:42:13.915Z,3.80
2018-03-07T08:44:41.515Z,3.60
2018-03-07T08:47:09.186Z,3.40
2018-03-07T08:49:36.642Z,3.50
2018-03-07T08:52:04.091Z,3.50
2018-03-07T08:54:31.638Z,3.40
2018-03-07T08:56:59.082Z,3.40
2018-03-07T08:59:26.525Z,3.50
2018-03-07T09:01:54.114Z,3.50
2018-03-07T09:04:21.558Z,3.60
2018-03-07T09:06:49.116Z,3.60
2018-03-07T09:09:17.475Z,3.50
2018-03-07T09:11:45.275Z,3.40
2018-03-07T09:14:13.146Z,3.50
2018-03-07T09:16:40.911Z,3.50
2018-03-07T09:19:08.350Z,3.50
2018-03-07T09:21:36.019Z,3.60
2018-03-07T09:24:03.588Z,3.60
2018-03-07T09:26:31.354Z,3.60
2018-03-07T09:28:59.087Z,3.80
2018-03-07T09:31:26.775Z,4.00
2018-03-07T09:33:54.199Z,4.40
2018-03-07T09:36:21.795Z,4.60
2018-03-07T09:38:49.866Z,4.30
2018-03-07T09:41:17.635Z,4.30
2018-03-07T09:43:45.327Z,4.40
2018-03-07T09:46:12.771Z,4.50
2018-03-07T09:48:40.256Z,4.90
2018-03-07T09:51:08.078Z,5.00
2018-03-07T09:53:35.830Z,5.20
2018-03-07T09:56:03.795Z,5.00
2018-03-07T09:58:31.419Z,5.20
2018-03-07T10:00:59.054Z,5.20
2018-03-07T10:03:27.136Z,5.40
2018-03-07T10:05:54.599Z,5.50
2018-03-07T10:08:22.125Z,5.50
2018-03-07T10:10:49.585Z,5.30
2018-03-07T10:13:17.339Z,5.10
2018-03-07T10:15:45.010Z,5.00
2018-03-07T10:18:12.596Z,5.00
2018-03-07T10:20:40.832Z,5.10
2018-03-07T10:23:08.270Z,5.20
2018-03-07T10:25:36.346Z,5.40
2018-03-07T10:28:03.801Z,5.60
2018-03-07T10:30:31.862Z,5.30
2018-03-07T10:32:59.319Z,5.20
2018-03-07T10:35:27.202Z,5.50
2018-03-07T10:37:54.847Z,5.60
2018-03-07T10:40:22.349Z,5.60
2018-03-07T10:42:49.890Z,5.30
2018-03-07T10:45:17.650Z,5.20
2018-03-07T10:47:45.726Z,5.30
2018-03-07T10:50:13.364Z,5.30
2018-03-07T10:52:40.831Z,5.30
2018-03-07T10:55:08.282Z,5.30
2018-03-07T10:57:35.746Z,5.60
2018-03-07T11:00:03.190Z,5.60
2018-03-07T11:02:31.279Z,5.90
2018-03-07T11:04:58.855Z,6.40
2018-03-07T11:07:26.626Z,7.00
2018-03-07T11:09:54.349Z,7.10
2018-03-07T11:12:22.022Z,7.50
2018-03-07T11:14:49.902Z,7.60
2018-03-07T11:17:17.675Z,7.90
2018-03-07T11:19:45.294Z,8.60
2018-03-07T11:22:13.080Z,9.10
2018-03-07T11:24:40.650Z,8.80
2018-03-07T11:27:08.304Z,8.70
2018-03-07T11:29:36.191Z,8.90
2018-03-07T11:32:03.641Z,9.50
2018-03-07T11:34:31.342Z,9.50
2018-03-07T11:36:59.050Z,9.70
2018-03-07T11:39:26.503Z,9.50
2018-03-07T11:41:54.397Z,9.40
2018-03-07T11:44:22.043Z,9.20
2018-03-07T11:46:49.789Z,9.50
2018-03-07T11:49:17.279Z,9.50
2018-03-07T11:51:44.750Z,10.40
2018-03-07T11:54:12.462Z,10.90
2018-03-07T11:56:39.922Z,11.10
2018-03-07T11:59:07.700Z,11.50
2018-03-07T12:01:35.467Z,12.50
2018-03-07T12:04:03.007Z,11.70
2018-03-07T12:06:30.794Z,12.70
2018-03-07T12:08:58.454Z,13.20
2018-03-07T12:11:25.910Z,12.80
2018-03-07T12:13:53.410Z,12.30
2018-03-07T12:16:21.167Z,13.10
2018-03-07T12:18:48.888Z,13.00
2018-03-07T12:21:16.355Z,13.30
2018-03-07T12:23:43.930Z,14.00
2018-03-07T12:26:11.709Z,13.40
2018-03-07T12:28:39.467Z,14.00
2018-03-07T12:31:07.446Z,13.60
2018-03-07T12:33:36.203Z,14.80
2018-03-07T12:36:03.831Z,14.80
2018-03-07T12:38:32.353Z,14.20
2018-03-07T12:40:59.801Z,14.20
2018-03-07T12:43:27.270Z,14.30
2018-03-07T12:45:54.762Z,13.80
2018-03-07T12:48:22.372Z,13.50
2018-03-07T12:50:50.225Z,14.10
2018-03-07T12:53:17.939Z,14.80
2018-03-07T12:55:45.638Z,15.10
2018-03-07T12:58:13.154Z,16.00
2018-03-07T13:00:40.830Z,15.00
2018-03-07T13:03:08.348Z,15.90
2018-03-07T13:05:36.117Z,16.50
2018-03-07T13:08:03.579Z,16.20
2018-03-07T13:10:31.025Z,16.30
2018-03-07T13:12:58.610Z,16.60
2018-03-07T13:15:26.051Z,16.80
2018-03-07T13:17:53.517Z,15.90
2018-03-07T13:20:21.410Z,16.20
2018-03-07T13:22:49.038Z,15.80
2018-03-07T13:25:16.507Z,15.90
2018-03-07T13:27:44.178Z,15.60
2018-03-07T13:30:12.037Z,15.50
2018-03-07T13:32:39.847Z,15.60
2018-03-07T13:35:07.562Z,13.80
2018-03-07T13:37:35.315Z,14.50
2018-03-07T13:40:03.116Z,15.50
2018-03-07T13:42:30.731Z,15.60
2018-03-07T13:44:58.431Z,15.60
2018-03-07T13:47:25.905Z,15.50
2018-03-07T13:49:53.410Z,14.20
2018-03-07T13:52:21.221Z,14.80
2018-03-07T13:54:48.675Z,14.80
2018-03-07T13:57:16.131Z,14.90
2018-03-07T13:59:43.855Z,15.10
2018-03-07T14:02:11.304Z,15.20
2018-03-07T14:04:39.067Z,14.50
2018-03-07T14:07:06.847Z,13.40
2018-03-07T14:09:34.290Z,13.30
2018-03-07T14:12:01.796Z,13.00
2018-03-07T14:14:29.249Z,12.20
2018-03-07T14:16:56.701Z,12.50
2018-03-07T14:19:24.177Z,12.90
2018-03-07T14:21:51.933Z,12.80
2018-03-07T14:24:19.766Z,13.00
2018-03-07T14:26:47.225Z,12.90
2018-03-07T14:29:14.701Z,12.90
2018-03-07T14:31:42.169Z,12.80
2018-03-07T14:34:10.093Z,12.80
2018-03-07T14:36:37.522Z,12.60
2018-03-07T14:39:06.239Z,12.00
2018-03-07T14:41:33.998Z,12.00
2018-03-07T14:44:02.402Z,11.40
2018-03-07T14:46:29.867Z,11.40
2018-03-07T14:48:57.527Z,11.20
2018-03-07T14:51:25.183Z,11.30
2018-03-07T14:53:52.942Z,11.40
2018-03-07T14:56:20.588Z,11.40
2018-03-07T14:58:48.038Z,11.50
2018-03-07T15:01:15.625Z,11.40
2018-03-07T15:03:43.407Z,11.40
2018-03-07T15:06:11.178Z,11.30
2018-03-07T15:08:38.726Z,11.20
2018-03-07T15:11:06.181Z,11.00
2018-03-07T15:13:34.019Z,10.80
2018-03-07T15:16:01.461Z,10.60
2018-03-07T15:18:28.931Z,10.60
2018-03-07T15:20:56.563Z,10.60
2018-03-07T15:23:24.586Z,10.50
2018-03-07T15:25:52.347Z,10.40
2018-03-07T15:28:19.919Z,10.30
2018-03-07T15:30:47.572Z,10.00
2018-03-07T15:33:15.247Z,10.00
2018-03-07T15:35:42.699Z,9.90
2018-03-07T15:38:11.169Z,10.00
2018-03-07T15:40:38.828Z,9.80
2018-03-07T15:43:06.690Z,9.40
2018-03-07T15:45:34.158Z,9.30
2018-03-07T15:48:01.605Z,9.30
2018-03-07T15:50:29.238Z,9.20
2018-03-07T15:52:56.826Z,9.30
2018-03-07T15:55:24.601Z,9.20
2018-03-07T15:57:52.245Z,9.10
2018-03-07T16:00:19.716Z,9.10
2018-03-07T16:02:47.280Z,9.10
2018-03-07T16:05:15.035Z,9.00
2018-03-07T16:07:42.685Z,9.00
2018-03-07T16:10:10.126Z,9.00
2018-03-07T16:12:37.896Z,8.90
2018-03-07T16:15:05.378Z,8.70
2018-03-07T16:17:33.226Z,8.70
2018-03-07T16:20:00.688Z,8.80
2018-03-07T16:22:28.652Z,8.80
2018-03-07T16:24:56.214Z,8.80
2018-03-07T16:27:25.220Z,8.80
2018-03-07T16:29:52.974Z,9.00
2018-03-07T16:32:20.460Z,9.00
2018-03-07T16:34:48.098Z,8.90
2018-03-07T16:37:15.665Z,8.70
2018-03-07T16:39:43.426Z,8.60
2018-03-07T16:42:11.190Z,8.50
2018-03-07T16:44:38.842Z,8.50
2018-03-07T16:47:06.698Z,8.50
2018-03-07T16:49:34.447Z,8.20
2018-03-07T16:52:02.125Z,8.20
2018-03-07T16:54:29.894Z,8.20
2018-03-07T16:56:57.502Z,8.10
2018-03-07T16:59:28.005Z,8.10
2018-03-07T17:01:55.633Z,8.00
2018-03-07T17:04:23.535Z,8.00
2018-03-07T17:06:51.194Z,8.00
2018-03-07T17:09:18.669Z,8.00
2018-03-07T17:11:46.520Z,8.00
2018-03-07T17:14:14.191Z,8.00
2018-03-07T17:16:41.877Z,8.00
2018-03-07T17:19:10.728Z,7.70
2018-03-07T17:21:38.386Z,7.60
2018-03-07T17:24:07.087Z,7.60
2018-03-07T17:26:34.942Z,7.60
2018-03-07T17:29:02.399Z,7.40
2018-03-07T17:31:30.471Z,7.30
2018-03-07T17:33:58.410Z,7.20
2018-03-07T17:36:25.889Z,7.20
2018-03-07T17:38:53.763Z,7.10
2018-03-07T17:41:21.716Z,7.10
2018-03-07T17:43:49.180Z,7.20
2018-03-07T17:46:16.629Z,7.20
2018-03-07T17:48:44.194Z,7.10
2018-03-07T17:51:11.848Z,7.20
2018-03-07T17:53:39.322Z,7.20
2018-03-07T17:56:09.380Z,7.10
2018-03-07T17:58:37.093Z,7.20
2018-03-07T18:01:04.765Z,7.30
2018-03-07T18:03:32.213Z,7.10
2018-03-07T18:05:59.650Z,7.10
2018-03-07T18:08:27.096Z,7.10
2018-03-07T18:10:55.513Z,7.10
2018-03-07T18:13:23.439Z,7.10
2018-03-07T18:15:51.863Z,7.10
2018-03-07T18:18:19.839Z,7.10
2018-03-07T18:20:47.601Z,6.70
2018-03-07T18:23:17.834Z,6.70
2018-03-07T18:25:45.511Z,6.60
2018-03-07T18:28:13.218Z,6.60
2018-03-07T18:30:41.110Z,6.60
2018-03-07T18:33:08.878Z,6.60
2018-03-07T18:35:36.322Z,6.50
2018-03-07T18:38:04.415Z,6.40
2018-03-07T18:40:32.003Z,6.50
2018-03-07T18:42:59.522Z,6.40
2018-03-07T18:45:27.393Z,6.30
2018-03-07T18:47:55.066Z,6.30
2018-03-07T18:50:22.522Z,6.20
2018-03-07T18:52:50.070Z,6.20
2018-03-07T18:55:17.730Z,6.30
2018-03-07T18:57:45.176Z,6.40
2018-03-07T19:00:12.721Z,6.30
2018-03-07T19:02:40.166Z,6.30
2018-03-07T19:05:07.974Z,6.40
2018-03-07T19:07:35.766Z,6.40
2018-03-07T19:10:03.384Z,6.60
2018-03-07T19:12:30.874Z,6.60
2018-03-07T19:14:59.097Z,6.60
2018-03-07T19:17:26.546Z,6.60
2018-03-07T19:19:54.250Z,6.50
2018-03-07T19:22:22.023Z,6.50
2018-03-07T19:24:49.508Z,6.40
2018-03-07T19:27:16.952Z,6.30
2018-03-07T19:29:44.493Z,6.30
2018-03-07T19:32:12.156Z,6.30
2018-03-07T19:34:39.801Z,6.20
2018-03-07T19:37:07.254Z,6.00
2018-03-07T19:39:34.826Z,6.10
2018-03-07T19:42:02.502Z,6.20
2018-03-07T19:44:30.368Z,6.10
2018-03-07T19:46:58.135Z,6.00
2018-03-07T19:49:25.889Z,6.00
2018-03-07T19:51:53.528Z,5.90
2018-03-07T19:54:21.309Z,6.00
2018-03-07T19:56:49.184Z,5.90
2018-03-07T19:59:16.654Z,5.90
2018-03-07T20:01:44.593Z,5.80
2018-03-07T20:04:12.169Z,5.80
2018-03-07T20:06:39.925Z,5.80
2018-03-07T20:09:07.676Z,5.80
2018-03-07T20:11:35.122Z,5.80
2018-03-07T20:14:02.920Z,5.80
2018-03-07T20:16:30.634Z,5.70
2018-03-07T20:18:58.074Z,5.80
2018-03-07T20:21:26.826Z,5.90
2018-03-07T20:23:54.586Z,5.90
2018-03-07T20:26:22.043Z,5.90
2018-03-07T20:28:49.978Z,6.00
2018-03-07T20:31:17.578Z,5.80
2018-03-07T20:33:45.028Z,5.70
2018-03-07T20:36:12.474Z,5.80
2018-03-07T20:38:40.259Z,5.70
2018-03-07T20:41:07.705Z,5.80
2018-03-07T20:43:35.778Z,5.70
2018-03-07T20:46:03.316Z,5.60
2018-03-07T20:48:31.315Z,5.70
2018-03-07T20:50:59.003Z,5.70
2018-03-07T20:53:26.582Z,5.60
2018-03-07T20:55:55.271Z,5.60
2018-03-07T20:58:23.287Z,5.60
2018-03-07T21:00:52.273Z,5.70
2018-03-07T21:03:20.527Z,5.60
2018-03-07T21:05:50.178Z,5.60
2018-03-07T21:08:19.877Z,5.60
2018-03-07T21:10:48.701Z,5.60
2018-03-07T21:13:16.649Z,5.70
2018-03-07T21:15:45.622Z,5.80
2018-03-07T21:18:13.103Z,5.80
2018-03-07T21:20:40.871Z,5.70
2018-03-07T21:23:08.619Z,5.80
2018-03-07T21:25:36.258Z,5.80
2018-03-07T21:28:03.701Z,5.70
2018-03-07T21:30:31.293Z,5.60
2018-03-07T21:32:58.886Z,5.70
2018-03-07T21:35:26.802Z,5.70
2018-03-07T21:37:54.522Z,5.60
2018-03-07T21:40:22.238Z,5.60
2018-03-07T21:42:49.817Z,5.60
2018-03-07T21:45:17.276Z,5.60
2018-03-07T21:47:44.744Z,5.60
2018-03-07T21:50:12.477Z,5.60
2018-03-07T21:52:39.931Z,5.60
2018-03-07T21:55:07.587Z,5.60
2018-03-07T21:57:35.331Z,5.60
2018-03-07T22:00:02.882Z,5.60
2018-03-07T22:02:30.695Z,5.60
2018-03-07T22:04:58.363Z,5.70
2018-03-07T22:07:26.521Z,5.70
2018-03-07T22:09:54.295Z,5.70
2018-03-07T22:12:22.060Z,5.70
2018-03-07T22:14:49.727Z,5.60
2018-03-07T22:17:17.587Z,5.60
2018-03-07T22:19:45.050Z,5.70
2018-03-07T22:22:12.903Z,5.80
2018-03-07T22:24:40.455Z,5.80
2018-03-07T22:27:08.334Z,5.70
2018-03-07T22:29:36.361Z,5.60
2018-03-07T22:32:03.851Z,5.60
2018-03-07T22:34:31.315Z,5.70
2018-03-07T22:36:59.103Z,5.70
2018-03-07T22:39:26.651Z,5.70
2018-03-07T22:41:54.638Z,5.60
2018-03-07T22:44:22.086Z,5.60
2018-03-07T22:46:49.848Z,5.50
2018-03-07T22:49:17.678Z,5.50
2018-03-07T22:51:45.126Z,5.50
2018-03-07T22:54:12.674Z,5.50
2018-03-07T22:56:40.991Z,5.40
2018-03-07T22:59:08.827Z,5.40
2018-03-07T23:01:36.533Z,5.40
2018-03-07T23:04:04.186Z,5.50
2018-03-07T23:06:31.836Z,5.40
2018-03-07T23:08:59.715Z,5.50
2018-03-07T23:11:27.481Z,5.40
2018-03-07T23:13:55.247Z,5.40
2018-03-07T23:16:22.973Z,5.50
2018-03-07T23:18:52.290Z,5.50
2018-03-07T23:21:19.967Z,5.50
2018-03-07T23:23:47.415Z,5.50
2018-03-07T23:26:15.167Z,5.40
2018-03-07T23:28:42.935Z,5.50
2018-03-07T23:31:10.403Z,5.50
2018-03-07T23:33:37.967Z,5.40
2018-03-07T23:36:06.038Z,5.40
2018-03-07T23:38:34.197Z,5.40
2018-03-07T23:41:02.181Z,5.40
2018-03-07T23:43:29.737Z,5.40
2018-03-07T23:45:57.478Z,5.50
2018-03-07T23:48:25.292Z,5.50
2018-03-07T23:50:52.815Z,5.50
2018-03-07T23:53:20.312Z,5.50
2018-03-07T23:55:47.782Z,5.50
2018-03-07T23:58:15.617Z,5.50
